Richmond, CA (94804)

1:15 AM PDT on September 05, 2015 (GMT -0700)
Tradewinds Sailing | | Change Station
CLOSE
Current Station
Personal Weather Station
Location: Richmond, CA
Elevation: 0 ft
Nearby Weather Stations

Elev 0 ft 37.91 °N, 122.35 °W | Updated 29 seconds ago

Clear
Clear
59.7 °F
Feels Like 59.7 °F
N
2.9
Wind Variable Wind from SE
Gusts 5.2 mph

Today
High -- | Low -- °F
--% Chance of Precip.
Yesterday
High -- | Low -- °F
Precip. -- in
6:42 AM 7:32 PM
Waning Gibbous, 51% visible
Pressure 29.90 in
Visibility 10.0 miles
Clouds Few 1400 ft
Dew Point 56 °F
Humidity 86%
Rainfall 0.00 in
Snow Depth Not available.
UV 0 out of 12
Pollen 8.30 out of 12
Air Quality Not available.
Flu Activity Not available.
METAR KOAK 050753Z 15005KT 10SM FEW014 16/11 A2990 RMK AO2 SLP124 T01560111 402220128
Pressure 29.90 in
Visibility 10.0 miles
Clouds Few 1400 ft
Dew Point 56 °F
Humidity 86%
Rainfall 0.00 in
Snow Depth Not available.
UV 0 out of 12
Pollen 8.30 out of 12
Air Quality Not available.
Flu Activity Not available.
METAR KOAK 050753Z 15005KT 10SM FEW014 16/11 A2990 RMK AO2 SLP124 T01560111 402220128

10-Day Weather Forecast

×

Almanac

Astronomy

Sep. 05, 2015 Rise Set
Actual Time
Civil Twilight
Nautical Twilight
Astronomical Twilight
Moon
Length of Visible Light
Length of Day
Tomorrow will be .
, % of the Moon is Illuminated

Today's Extremes

State Highs State Lows

Community

WunderPhotos

Upload Photos

1,852,438 photos uploaded!

WunderBlogs® & News

Nearby

Air Quality

  Air Quality AQ Index Pollutant
Not available.

Snow Depth

Station Depth Elevation

Earthquake Activity

City Distance Mag. Time & Date
Minimum magnitude displayed is 2.5.

Coastal Water Temperatures

Place Temperature

Stations

Nearby Weather Stations

Station Location Temp. Windchill Dew Point Humidity Wind Precip. Elev Updated Type